createdAt,value
2022-10-23T00:00:20.567Z,9.90
2022-10-23T00:02:51.999Z,10.00
2022-10-23T00:05:18.774Z,10.00
2022-10-23T00:07:45.406Z,9.90
2022-10-23T00:10:12.049Z,9.90
2022-10-23T00:12:39.299Z,9.90
2022-10-23T00:15:06.242Z,9.80
2022-10-23T00:17:35.013Z,9.80
2022-10-23T00:20:01.778Z,9.80
2022-10-23T00:22:28.482Z,9.80
2022-10-23T00:24:55.123Z,9.80
2022-10-23T00:27:21.787Z,9.70
2022-10-23T00:29:48.461Z,9.70
2022-10-23T00:32:15.153Z,9.70
2022-10-23T00:34:41.841Z,9.70
2022-10-23T00:37:08.522Z,9.70
2022-10-23T00:39:35.238Z,9.70
2022-10-23T00:42:01.921Z,9.70
2022-10-23T00:44:28.503Z,9.60
2022-10-23T00:46:55.256Z,9.50
2022-10-23T00:49:23.029Z,9.40
2022-10-23T00:51:53.934Z,9.40
2022-10-23T00:54:24.664Z,9.40
2022-10-23T00:56:54.685Z,9.40
2022-10-23T00:59:21.464Z,9.40
2022-10-23T01:01:49.064Z,9.40
2022-10-23T01:04:16.096Z,9.40
2022-10-23T01:06:45.738Z,9.30
2022-10-23T01:09:12.374Z,9.30
2022-10-23T01:11:40.999Z,9.30
2022-10-23T01:14:37.108Z,9.30
2022-10-23T01:17:03.727Z,9.20
2022-10-23T01:19:43.016Z,9.20
2022-10-23T01:22:22.580Z,9.10
2022-10-23T01:25:12.336Z,9.10
2022-10-23T01:27:44.516Z,9.10
2022-10-23T01:30:12.999Z,9.10
2022-10-23T01:32:51.038Z,9.10
2022-10-23T01:35:22.882Z,9.10
2022-10-23T01:38:01.130Z,9.10
2022-10-23T01:40:33.905Z,9.10
2022-10-23T01:43:04.824Z,9.00
2022-10-23T01:45:37.336Z,9.00
2022-10-23T01:48:04.558Z,8.90
2022-10-23T01:50:31.608Z,8.90
2022-10-23T01:52:58.372Z,8.90
2022-10-23T01:55:25.769Z,8.90
2022-10-23T01:57:53.414Z,8.90
2022-10-23T02:00:20.437Z,8.90
2022-10-23T02:02:48.070Z,8.80
2022-10-23T02:05:23.818Z,8.90
2022-10-23T02:07:50.707Z,8.80
2022-10-23T02:10:17.805Z,8.80
2022-10-23T02:12:44.479Z,8.80
2022-10-23T02:15:12.352Z,8.80
2022-10-23T02:17:39.032Z,8.70
2022-10-23T02:20:16.339Z,8.80
2022-10-23T02:22:45.831Z,8.70
2022-10-23T02:25:18.193Z,8.70
2022-10-23T02:27:50.674Z,8.70
2022-10-23T02:30:18.245Z,8.60
2022-10-23T02:32:47.493Z,8.70
2022-10-23T02:35:14.875Z,8.60
2022-10-23T02:37:41.889Z,8.60
2022-10-23T02:40:09.613Z,8.50
2022-10-23T02:42:36.264Z,8.50
2022-10-23T02:45:03.004Z,8.50
2022-10-23T02:47:32.670Z,8.50
2022-10-23T02:50:38.036Z,8.50
2022-10-23T02:53:22.718Z,8.40
2022-10-23T02:55:49.395Z,8.50
2022-10-23T02:58:19.140Z,8.40
2022-10-23T03:00:48.928Z,8.40
2022-10-23T03:03:19.246Z,8.40
2022-10-23T03:05:46.002Z,8.30
2022-10-23T03:08:13.666Z,8.30
2022-10-23T03:10:40.650Z,8.20
2022-10-23T03:13:07.387Z,8.20
2022-10-23T03:15:34.016Z,8.20
2022-10-23T03:18:00.696Z,8.20
2022-10-23T03:20:27.358Z,8.10
2022-10-23T03:22:54.177Z,8.10
2022-10-23T03:25:20.971Z,8.10
2022-10-23T03:27:47.619Z,8.10
2022-10-23T03:30:14.411Z,8.10
2022-10-23T03:32:41.416Z,8.10
2022-10-23T03:35:08.645Z,8.10
2022-10-23T03:37:35.352Z,8.10
2022-10-23T03:40:02.171Z,8.10
2022-10-23T03:42:28.806Z,8.10
2022-10-23T03:44:55.430Z,8.10
2022-10-23T03:47:22.112Z,8.10
2022-10-23T03:49:48.762Z,8.00
2022-10-23T03:52:15.476Z,8.00
2022-10-23T03:54:42.226Z,8.00
2022-10-23T03:57:08.867Z,8.00
2022-10-23T03:59:35.663Z,8.00
2022-10-23T04:02:02.430Z,8.00
2022-10-23T04:04:29.239Z,8.00
2022-10-23T04:06:55.955Z,8.00
2022-10-23T04:09:22.788Z,8.00
2022-10-23T04:11:49.550Z,8.00
2022-10-23T04:14:16.187Z,7.90
2022-10-23T04:16:42.880Z,7.90
2022-10-23T04:19:09.813Z,7.80
2022-10-23T04:21:36.472Z,7.90
2022-10-23T04:24:03.692Z,7.90
2022-10-23T04:26:30.715Z,7.90
2022-10-23T04:28:57.422Z,7.90
2022-10-23T04:31:24.091Z,7.90
2022-10-23T04:33:50.745Z,7.90
2022-10-23T04:36:17.367Z,7.80
2022-10-23T04:38:44.054Z,7.80
2022-10-23T04:41:10.700Z,7.80
2022-10-23T04:43:37.413Z,7.80
2022-10-23T04:46:04.461Z,7.80
2022-10-23T04:48:31.247Z,7.80
2022-10-23T04:50:59.072Z,7.80
2022-10-23T04:53:26.216Z,7.70
2022-10-23T04:55:53.814Z,7.70
2022-10-23T04:58:20.572Z,7.70
2022-10-23T05:00:47.857Z,7.70
2022-10-23T05:03:15.267Z,7.70
2022-10-23T05:05:42.340Z,7.70
2022-10-23T05:08:10.080Z,7.70
2022-10-23T05:10:37.418Z,7.70
2022-10-23T05:13:04.483Z,7.70
2022-10-23T05:15:31.143Z,7.60
2022-10-23T05:18:04.374Z,7.70
2022-10-23T05:20:32.896Z,7.60
2022-10-23T05:23:00.543Z,7.70
2022-10-23T05:25:27.275Z,7.70
2022-10-23T05:27:54.010Z,7.80
2022-10-23T05:30:20.693Z,7.80
2022-10-23T05:32:47.741Z,7.80
2022-10-23T05:35:17.408Z,7.80
2022-10-23T05:37:45.287Z,7.80
2022-10-23T05:40:12.166Z,7.80
2022-10-23T05:42:40.911Z,7.80
2022-10-23T05:45:09.015Z,7.80
2022-10-23T05:47:35.817Z,7.90
2022-10-23T05:50:02.457Z,8.00
2022-10-23T05:52:29.145Z,8.00
2022-10-23T05:54:55.826Z,8.00
2022-10-23T05:57:22.457Z,8.00
2022-10-23T05:59:49.130Z,8.10
2022-10-23T06:02:15.847Z,8.10
2022-10-23T06:04:42.485Z,8.10
2022-10-23T06:07:09.147Z,8.20
2022-10-23T06:09:35.803Z,8.20
2022-10-23T06:12:02.845Z,8.30
2022-10-23T06:14:29.507Z,8.30
2022-10-23T06:16:56.241Z,8.40
2022-10-23T06:19:22.968Z,8.50
2022-10-23T06:21:49.655Z,8.50
2022-10-23T06:24:16.312Z,8.50
2022-10-23T06:26:42.938Z,8.60
2022-10-23T06:29:09.749Z,8.70
2022-10-23T06:31:36.526Z,8.70
2022-10-23T06:34:03.248Z,8.80
2022-10-23T06:36:30.076Z,8.80
2022-10-23T06:38:56.842Z,8.80
2022-10-23T06:41:23.588Z,8.80
2022-10-23T06:43:51.639Z,8.90
2022-10-23T06:46:18.788Z,9.00
2022-10-23T06:48:45.450Z,9.00
2022-10-23T06:51:13.626Z,9.00
2022-10-23T06:53:40.536Z,9.10
2022-10-23T06:56:08.013Z,9.10
2022-10-23T06:58:35.212Z,9.20
2022-10-23T07:01:02.237Z,9.20
2022-10-23T07:03:28.974Z,9.30
2022-10-23T07:05:55.673Z,9.30
2022-10-23T07:08:22.428Z,9.40
2022-10-23T07:10:49.112Z,9.40
2022-10-23T07:13:15.796Z,9.50
2022-10-23T07:15:42.528Z,9.50
2022-10-23T07:18:14.448Z,9.50
2022-10-23T07:20:41.711Z,9.60
2022-10-23T07:23:09.188Z,9.60
2022-10-23T07:25:35.853Z,9.70
2022-10-23T07:28:03.492Z,9.80
2022-10-23T07:30:30.385Z,9.90
2022-10-23T07:32:57.044Z,10.00
2022-10-23T07:35:23.844Z,10.10
2022-10-23T07:37:50.526Z,10.20
2022-10-23T07:40:18.801Z,10.30
2022-10-23T07:42:45.450Z,10.40
2022-10-23T07:45:12.726Z,10.50
2022-10-23T07:47:39.525Z,10.60
2022-10-23T07:50:06.407Z,10.60
2022-10-23T07:52:35.979Z,10.70
2022-10-23T07:55:02.953Z,10.80
2022-10-23T07:57:29.766Z,10.90
2022-10-23T07:59:56.386Z,10.90
2022-10-23T08:02:23.084Z,11.00
2022-10-23T08:04:50.181Z,11.10
2022-10-23T08:07:16.812Z,11.10
2022-10-23T08:09:43.569Z,11.20
2022-10-23T08:12:10.281Z,11.30
2022-10-23T08:14:36.993Z,11.30
2022-10-23T08:17:05.232Z,11.40
2022-10-23T08:19:32.286Z,11.50
2022-10-23T08:21:58.981Z,11.60
2022-10-23T08:24:25.701Z,11.70
2022-10-23T08:26:52.333Z,11.80
2022-10-23T08:29:19.009Z,11.90
2022-10-23T08:31:45.742Z,12.00
2022-10-23T08:34:12.507Z,12.10
2022-10-23T08:36:39.373Z,12.20
2022-10-23T08:39:06.699Z,12.20
2022-10-23T08:41:33.341Z,12.30
2022-10-23T08:44:21.280Z,12.40
2022-10-23T08:46:50.622Z,12.40
2022-10-23T08:49:30.359Z,12.50
2022-10-23T08:51:58.951Z,12.60
2022-10-23T08:54:46.282Z,12.70
2022-10-23T08:57:14.634Z,12.80
2022-10-23T08:59:46.974Z,12.90
2022-10-23T09:02:17.589Z,13.00
2022-10-23T09:04:45.989Z,13.10
2022-10-23T09:07:18.866Z,13.20
2022-10-23T09:10:04.150Z,13.30
2022-10-23T09:12:31.944Z,13.40
2022-10-23T09:15:18.600Z,13.50
2022-10-23T09:17:46.112Z,13.60
2022-10-23T09:20:42.530Z,13.70
2022-10-23T09:23:12.240Z,13.70
2022-10-23T09:25:40.027Z,13.70
2022-10-23T09:28:07.084Z,13.80
2022-10-23T09:30:38.122Z,13.90
2022-10-23T09:33:20.160Z,14.00
2022-10-23T09:36:03.786Z,14.00
2022-10-23T09:38:32.368Z,14.10
2022-10-23T09:41:02.134Z,14.20
2022-10-23T09:43:29.419Z,14.20
2022-10-23T09:45:57.303Z,14.30
2022-10-23T09:48:24.054Z,14.30
2022-10-23T09:50:55.118Z,14.40
2022-10-23T09:53:33.250Z,14.50
2022-10-23T09:56:01.666Z,14.50
2022-10-23T09:58:33.594Z,14.60
2022-10-23T10:01:00.747Z,14.60
2022-10-23T10:03:27.825Z,14.70
2022-10-23T10:05:59.230Z,14.70
2022-10-23T10:08:46.326Z,14.80
2022-10-23T10:11:22.215Z,14.80
2022-10-23T10:14:07.792Z,14.90
2022-10-23T10:16:34.601Z,14.80
2022-10-23T10:19:10.254Z,14.90
2022-10-23T10:21:37.156Z,14.90
2022-10-23T10:24:27.124Z,15.00
2022-10-23T10:26:55.420Z,15.10
2022-10-23T10:29:30.046Z,15.20
2022-10-23T10:32:15.480Z,15.30
2022-10-23T10:34:48.428Z,15.40
2022-10-23T10:37:15.056Z,15.40
2022-10-23T10:39:48.064Z,15.50
2022-10-23T10:42:17.873Z,15.40
2022-10-23T10:44:55.920Z,15.50
2022-10-23T10:47:23.262Z,15.50
2022-10-23T10:49:49.912Z,15.50
2022-10-23T10:52:22.705Z,15.50
2022-10-23T10:54:58.682Z,15.50
2022-10-23T10:57:33.872Z,15.60
2022-10-23T11:00:11.831Z,15.60
2022-10-23T11:02:41.503Z,15.60
2022-10-23T11:05:11.350Z,15.70
2022-10-23T11:07:41.189Z,15.70
2022-10-23T11:10:15.953Z,15.70
2022-10-23T11:12:43.442Z,15.80
2022-10-23T11:15:17.979Z,15.80
2022-10-23T11:17:47.821Z,15.90
2022-10-23T11:20:31.103Z,15.90
2022-10-23T11:23:00.811Z,15.90
2022-10-23T11:25:28.724Z,16.00
2022-10-23T11:28:11.794Z,16.00
2022-10-23T11:30:47.404Z,16.00
2022-10-23T11:33:34.003Z,16.00
2022-10-23T11:36:14.240Z,16.00
2022-10-23T11:38:41.890Z,16.10
2022-10-23T11:41:22.277Z,16.10
2022-10-23T11:43:57.091Z,16.20
2022-10-23T11:46:24.613Z,16.30
2022-10-23T11:48:51.428Z,16.30
2022-10-23T11:51:29.270Z,16.40
2022-10-23T11:54:22.452Z,16.40
2022-10-23T11:57:02.142Z,16.40
2022-10-23T11:59:33.603Z,16.50
2022-10-23T12:02:09.940Z,16.60
2022-10-23T12:04:40.685Z,16.70
2022-10-23T12:07:16.537Z,16.70
2022-10-23T12:09:44.799Z,16.80
2022-10-23T12:12:11.384Z,16.80
2022-10-23T12:14:43.258Z,16.90
2022-10-23T12:17:30.605Z,16.90
2022-10-23T12:20:03.373Z,17.00
2022-10-23T12:22:38.237Z,17.00
2022-10-23T12:25:07.178Z,17.10
2022-10-23T12:27:46.320Z,17.30
2022-10-23T12:30:18.824Z,17.40
2022-10-23T12:32:57.662Z,17.50
2022-10-23T12:35:29.562Z,17.60
2022-10-23T12:38:11.518Z,17.70
2022-10-23T12:40:38.318Z,17.70
2022-10-23T12:43:20.487Z,17.80
2022-10-23T12:45:47.520Z,17.80
2022-10-23T12:48:18.750Z,17.80
2022-10-23T12:50:48.071Z,17.80
2022-10-23T12:53:16.637Z,17.90
2022-10-23T12:55:48.599Z,17.90
2022-10-23T12:58:19.674Z,17.90
2022-10-23T13:00:53.689Z,18.00
2022-10-23T13:03:22.418Z,18.00
2022-10-23T13:05:53.506Z,18.10
2022-10-23T13:08:21.200Z,18.10
2022-10-23T13:10:48.429Z,18.10
2022-10-23T13:13:19.978Z,18.20
2022-10-23T13:15:46.728Z,18.10
2022-10-23T13:18:14.647Z,18.10
2022-10-23T13:20:56.215Z,18.00
2022-10-23T13:23:25.945Z,17.90
2022-10-23T13:25:54.560Z,18.00
2022-10-23T13:28:25.893Z,18.10
2022-10-23T13:31:00.707Z,18.20
2022-10-23T13:33:32.257Z,18.30
2022-10-23T13:36:00.002Z,18.40
2022-10-23T13:38:30.751Z,18.60
2022-10-23T13:41:01.068Z,18.70
2022-10-23T13:43:28.960Z,18.70
2022-10-23T13:46:01.845Z,18.80
2022-10-23T13:48:29.081Z,18.80
2022-10-23T13:51:01.561Z,18.70
2022-10-23T13:53:28.405Z,18.60
2022-10-23T13:55:57.881Z,18.50
2022-10-23T13:58:25.694Z,18.50
2022-10-23T14:00:53.436Z,18.50
2022-10-23T14:03:24.242Z,18.40
2022-10-23T14:05:51.565Z,18.30
2022-10-23T14:08:19.467Z,18.30
2022-10-23T14:10:46.499Z,18.20
2022-10-23T14:13:13.203Z,18.20
2022-10-23T14:15:40.122Z,18.10
2022-10-23T14:18:08.311Z,18.10
2022-10-23T14:20:37.792Z,18.00
2022-10-23T14:23:04.543Z,17.90
2022-10-23T14:25:31.165Z,17.80
2022-10-23T14:27:57.843Z,17.70
2022-10-23T14:30:24.458Z,17.70
2022-10-23T14:32:52.263Z,17.60
2022-10-23T14:35:18.967Z,17.50
2022-10-23T14:37:46.401Z,17.40
2022-10-23T14:40:13.274Z,17.40
2022-10-23T14:42:39.928Z,17.30
2022-10-23T14:45:06.793Z,17.30
2022-10-23T14:47:33.564Z,17.30
2022-10-23T14:50:00.435Z,17.30
2022-10-23T14:52:27.145Z,17.30
2022-10-23T14:54:53.869Z,17.30
2022-10-23T14:57:21.971Z,17.20
2022-10-23T14:59:49.310Z,17.20
2022-10-23T15:02:16.568Z,17.10
2022-10-23T15:04:43.697Z,17.10
2022-10-23T15:07:10.388Z,17.10
2022-10-23T15:09:37.460Z,17.10
2022-10-23T15:12:04.350Z,17.00
2022-10-23T15:14:31.101Z,16.90
2022-10-23T15:16:58.013Z,16.80
2022-10-23T15:19:24.732Z,16.70
2022-10-23T15:21:52.571Z,16.70
2022-10-23T15:24:20.760Z,16.60
2022-10-23T15:26:47.583Z,16.60
2022-10-23T15:29:15.119Z,16.50
2022-10-23T15:31:43.065Z,16.40
2022-10-23T15:34:11.109Z,16.30
2022-10-23T15:36:37.840Z,16.20
2022-10-23T15:39:07.062Z,16.10
2022-10-23T15:41:34.545Z,16.00
2022-10-23T15:44:01.922Z,16.00
2022-10-23T15:46:29.098Z,15.90
2022-10-23T15:48:55.722Z,15.80
2022-10-23T15:51:22.402Z,15.80
2022-10-23T15:53:49.279Z,15.70
2022-10-23T15:56:15.938Z,15.60
2022-10-23T15:58:43.014Z,15.50
2022-10-23T16:01:09.737Z,15.50
2022-10-23T16:03:37.227Z,15.40
2022-10-23T16:06:08.000Z,15.30
2022-10-23T16:08:35.262Z,15.30
2022-10-23T16:11:02.247Z,15.20
2022-10-23T16:13:29.020Z,15.20
2022-10-23T16:15:55.662Z,15.10
2022-10-23T16:18:23.173Z,15.00
2022-10-23T16:20:55.172Z,14.90
2022-10-23T16:23:22.280Z,14.90
2022-10-23T16:25:48.950Z,14.90
2022-10-23T16:28:15.760Z,14.80
2022-10-23T16:30:43.051Z,14.80
2022-10-23T16:33:10.838Z,14.70
2022-10-23T16:35:37.494Z,14.70
2022-10-23T16:38:04.201Z,14.70
2022-10-23T16:40:30.941Z,14.60
2022-10-23T16:42:58.350Z,14.60
2022-10-23T16:45:25.007Z,14.60
2022-10-23T16:47:51.855Z,14.60
2022-10-23T16:50:18.657Z,14.50
2022-10-23T16:52:45.761Z,14.50
2022-10-23T16:55:12.720Z,14.50
2022-10-23T16:57:39.905Z,14.50
2022-10-23T17:00:07.472Z,14.40
2022-10-23T17:02:34.374Z,14.40
2022-10-23T17:05:01.164Z,14.40
2022-10-23T17:07:27.976Z,14.40
2022-10-23T17:09:54.672Z,14.40
2022-10-23T17:12:21.348Z,14.40
2022-10-23T17:14:48.007Z,14.40
2022-10-23T17:17:14.693Z,14.40
2022-10-23T17:19:45.863Z,14.40
2022-10-23T17:22:13.942Z,14.40
2022-10-23T17:24:41.977Z,14.30
2022-10-23T17:27:08.575Z,14.30
2022-10-23T17:29:35.328Z,14.30
2022-10-23T17:32:02.019Z,14.30
2022-10-23T17:34:28.763Z,14.30
2022-10-23T17:36:55.565Z,14.20
2022-10-23T17:39:24.020Z,14.20
2022-10-23T17:41:50.758Z,14.10
2022-10-23T17:44:17.528Z,14.10
2022-10-23T17:46:44.501Z,14.00
2022-10-23T17:49:12.230Z,14.00
2022-10-23T17:51:39.062Z,14.00
2022-10-23T17:54:08.917Z,13.90
2022-10-23T17:56:37.562Z,13.80
2022-10-23T17:59:06.003Z,13.80
2022-10-23T18:01:32.765Z,13.80
2022-10-23T18:04:02.260Z,13.80
2022-10-23T18:06:32.239Z,13.80
2022-10-23T18:08:59.899Z,13.80
2022-10-23T18:11:34.188Z,13.80
2022-10-23T18:14:01.330Z,13.80
2022-10-23T18:16:28.125Z,13.80
2022-10-23T18:18:55.381Z,13.70
2022-10-23T18:21:23.247Z,13.70
2022-10-23T18:23:50.387Z,13.60
2022-10-23T18:26:18.779Z,13.60
2022-10-23T18:28:46.090Z,13.70
2022-10-23T18:31:13.656Z,13.70
2022-10-23T18:33:40.656Z,13.70
2022-10-23T18:36:14.905Z,13.70
2022-10-23T18:38:41.741Z,13.70
2022-10-23T18:41:08.601Z,13.70
2022-10-23T18:43:44.175Z,13.70
2022-10-23T18:46:14.400Z,13.70
2022-10-23T18:48:41.371Z,13.70
2022-10-23T18:51:16.148Z,13.70
2022-10-23T18:53:45.840Z,13.60
2022-10-23T18:56:13.274Z,13.60
2022-10-23T18:58:40.154Z,13.60
2022-10-23T19:01:07.129Z,13.50
2022-10-23T19:03:34.171Z,13.50
2022-10-23T19:06:00.907Z,13.50
2022-10-23T19:08:28.432Z,13.50
2022-10-23T19:10:57.437Z,13.50
2022-10-23T19:13:24.106Z,13.50
2022-10-23T19:15:50.895Z,13.50
2022-10-23T19:18:17.684Z,13.40
2022-10-23T19:20:44.773Z,13.40
2022-10-23T19:23:13.958Z,13.40
2022-10-23T19:25:44.926Z,13.30
2022-10-23T19:28:11.701Z,13.40
2022-10-23T19:30:39.456Z,13.40
2022-10-23T19:33:08.565Z,13.30
2022-10-23T19:35:35.448Z,13.30
2022-10-23T19:38:02.158Z,13.20
2022-10-23T19:40:28.986Z,13.20
2022-10-23T19:42:55.713Z,13.30
2022-10-23T19:45:22.936Z,13.30
2022-10-23T19:47:49.747Z,13.30
2022-10-23T19:50:16.543Z,13.30
2022-10-23T19:52:43.222Z,13.30
2022-10-23T19:55:10.231Z,13.30
2022-10-23T19:57:37.181Z,13.30
2022-10-23T20:00:05.323Z,13.30
2022-10-23T20:05:05.783Z,13.20
2022-10-23T20:07:32.785Z,13.10
2022-10-23T20:10:00.021Z,13.10
2022-10-23T20:12:26.808Z,13.10
2022-10-23T20:14:54.906Z,13.10
2022-10-23T20:17:22.292Z,13.20
2022-10-23T20:19:49.340Z,13.20
2022-10-23T20:22:16.737Z,13.20
2022-10-23T20:24:43.401Z,13.30
2022-10-23T20:27:10.388Z,13.30
2022-10-23T20:29:37.195Z,13.40
2022-10-23T20:32:04.002Z,13.40
2022-10-23T20:34:30.739Z,13.40
2022-10-23T20:36:57.400Z,13.40
2022-10-23T20:39:29.585Z,13.40
2022-10-23T20:41:56.867Z,13.30
2022-10-23T20:44:23.912Z,13.30
2022-10-23T20:46:51.190Z,13.30
2022-10-23T20:49:18.171Z,13.30
2022-10-23T20:51:45.044Z,13.30
2022-10-23T20:54:11.773Z,13.30
2022-10-23T20:56:39.055Z,13.30
2022-10-23T20:59:13.450Z,13.30
2022-10-23T21:01:41.471Z,13.30
2022-10-23T21:04:08.439Z,13.40
2022-10-23T21:06:46.165Z,13.40
2022-10-23T21:09:21.990Z,13.50
2022-10-23T21:11:48.651Z,13.50
2022-10-23T21:14:15.382Z,13.50
2022-10-23T21:16:44.423Z,13.50
2022-10-23T21:19:15.921Z,13.50
2022-10-23T21:21:43.184Z,13.40
2022-10-23T21:24:13.501Z,13.40
2022-10-23T21:26:40.667Z,13.30
2022-10-23T21:29:17.952Z,13.30
2022-10-23T21:31:45.504Z,13.30
2022-10-23T21:34:12.482Z,13.20
2022-10-23T21:36:53.882Z,13.20
2022-10-23T21:39:26.386Z,13.20
2022-10-23T21:41:53.275Z,13.20
2022-10-23T21:44:19.910Z,13.20
2022-10-23T21:46:47.042Z,13.20
2022-10-23T21:49:13.967Z,13.20
2022-10-23T21:51:41.057Z,13.10
2022-10-23T21:54:08.575Z,13.10
2022-10-23T21:56:45.944Z,13.20
2022-10-23T21:59:14.891Z,13.10
2022-10-23T22:01:43.424Z,13.20
2022-10-23T22:04:10.957Z,13.10
2022-10-23T22:06:38.278Z,13.20
2022-10-23T22:09:05.545Z,13.10
2022-10-23T22:11:32.532Z,13.00
2022-10-23T22:13:59.568Z,13.10
2022-10-23T22:16:26.747Z,13.10
2022-10-23T22:18:53.524Z,13.10
2022-10-23T22:21:21.410Z,13.00
2022-10-23T22:23:49.423Z,13.00
2022-10-23T22:26:20.379Z,12.90
2022-10-23T22:28:46.989Z,13.00
2022-10-23T22:31:18.205Z,13.00
2022-10-23T22:33:44.991Z,13.00
2022-10-23T22:36:11.769Z,13.10
2022-10-23T22:38:38.871Z,13.10
2022-10-23T22:41:05.589Z,13.10
2022-10-23T22:43:32.222Z,13.10
2022-10-23T22:46:06.420Z,13.10
2022-10-23T22:48:33.700Z,13.20
2022-10-23T22:51:00.292Z,13.20
2022-10-23T22:53:27.392Z,13.30
2022-10-23T22:55:54.813Z,13.30
2022-10-23T22:58:22.047Z,13.40
2022-10-23T23:00:49.726Z,13.30
2022-10-23T23:03:16.957Z,13.60
2022-10-23T23:05:44.466Z,14.50
2022-10-23T23:08:11.415Z,14.60
2022-10-23T23:10:38.514Z,14.30
2022-10-23T23:13:05.267Z,14.20
2022-10-23T23:15:32.136Z,14.20
2022-10-23T23:17:58.782Z,14.10
2022-10-23T23:20:25.473Z,14.10
2022-10-23T23:22:52.245Z,14.10
2022-10-23T23:25:18.890Z,14.10
2022-10-23T23:27:46.798Z,14.00
2022-10-23T23:30:13.432Z,14.00
2022-10-23T23:32:40.058Z,14.00
2022-10-23T23:35:06.834Z,14.00
2022-10-23T23:37:33.547Z,14.00
2022-10-23T23:40:00.201Z,14.00
2022-10-23T23:42:26.879Z,14.00
2022-10-23T23:45:02.479Z,14.00
2022-10-23T23:47:29.730Z,13.90
2022-10-23T23:49:56.400Z,13.90
2022-10-23T23:52:23.102Z,13.90
2022-10-23T23:54:49.737Z,13.80
2022-10-23T23:57:16.418Z,13.80
2022-10-23T23:59:43.081Z,13.80
